Weather at Gong Kedak Airport

Public forecast

Using degrees Celsius for public forecast. Weather courtesy of forecast.io.

Closest aviation weather report (METAR) to Gong Kedak Airport

Closest report is Sultan Ismail Petra Airport, 24.8 nm (46.0 km) NNW.

2024/02/29 07:00 (retrieved 1 hour ago)

WMKC 290700Z 08009KT 040V130 9999 FEW018 32/24 Q1010

Closest aviation forecast (TAF) to Gong Kedak Airport

Closest forecast is Sultan Ismail Petra Airport, 24.8 nm (46.0 km) NNW.

2024/02/29 06:00 (retrieved 2 hours ago)

TAF WMKC 290500Z 2906/0106 09008KT 9999 FEW018